createdAt,value
2023-05-12T00:01:21.666Z,8.20
2023-05-12T00:03:48.522Z,7.82
2023-05-12T00:06:15.592Z,7.68
2023-05-12T00:08:42.412Z,7.97
2023-05-12T00:11:09.218Z,7.30
2023-05-12T00:13:36.004Z,7.67
2023-05-12T00:16:03.489Z,7.40
2023-05-12T00:18:30.750Z,7.10
2023-05-12T00:20:57.569Z,7.20
2023-05-12T00:23:24.279Z,7.72
2023-05-12T00:25:51.133Z,7.30
2023-05-12T00:28:18.817Z,7.45
2023-05-12T00:30:45.631Z,7.40
2023-05-12T00:33:12.573Z,7.75
2023-05-12T00:35:39.675Z,7.22
2023-05-12T00:38:06.438Z,7.10
2023-05-12T00:40:33.258Z,7.50
2023-05-12T00:43:00.123Z,7.53
2023-05-12T00:45:26.971Z,7.47
2023-05-12T00:47:53.890Z,7.25
2023-05-12T00:50:21.575Z,7.70
2023-05-12T00:52:48.946Z,7.88
2023-05-12T00:55:15.767Z,7.30
2023-05-12T00:57:43.267Z,7.85
2023-05-12T01:00:10.807Z,7.75
2023-05-12T01:02:37.718Z,6.93
2023-05-12T01:05:04.718Z,7.55
2023-05-12T01:07:32.396Z,7.57
2023-05-12T01:09:59.282Z,7.55
2023-05-12T01:12:26.188Z,7.50
2023-05-12T01:14:53.854Z,7.30
2023-05-12T01:17:22.002Z,7.35
2023-05-12T01:19:52.735Z,7.60
2023-05-12T01:22:19.583Z,7.85
2023-05-12T01:24:49.778Z,7.50
2023-05-12T01:27:17.502Z,7.43
2023-05-12T01:29:45.918Z,7.53
2023-05-12T01:32:12.851Z,7.72
2023-05-12T01:34:39.657Z,7.82
2023-05-12T01:37:06.394Z,8.07
2023-05-12T01:39:33.159Z,7.90
2023-05-12T01:41:59.942Z,7.95
2023-05-12T01:44:26.739Z,7.97
2023-05-12T01:46:53.617Z,7.97
2023-05-12T01:49:20.616Z,8.57
2023-05-12T01:51:47.338Z,8.50
2023-05-12T01:54:14.155Z,8.10
2023-05-12T01:56:41.186Z,8.52
2023-05-12T01:59:08.316Z,8.10
2023-05-12T02:01:35.138Z,7.97
2023-05-12T02:04:04.028Z,8.03
2023-05-12T02:06:31.561Z,8.90
2023-05-12T02:08:58.386Z,8.35
2023-05-12T02:11:25.184Z,8.30
2023-05-12T02:13:52.383Z,7.97
2023-05-12T02:16:19.190Z,8.57
2023-05-12T02:18:46.107Z,8.70
2023-05-12T02:21:12.901Z,8.52
2023-05-12T02:23:39.704Z,8.45
2023-05-12T02:26:06.517Z,8.95
2023-05-12T02:28:33.527Z,8.93
2023-05-12T02:31:00.293Z,8.07
2023-05-12T02:33:27.028Z,8.88
2023-05-12T02:35:53.791Z,8.80
2023-05-12T02:38:20.706Z,8.68
2023-05-12T02:40:47.927Z,9.00
2023-05-12T02:43:14.681Z,8.43
2023-05-12T02:45:41.647Z,8.38
2023-05-12T02:48:08.660Z,8.85
2023-05-12T02:50:35.509Z,8.70
2023-05-12T02:53:02.432Z,9.07
2023-05-12T02:55:30.336Z,9.60
2023-05-12T02:57:57.346Z,9.88
2023-05-12T03:00:24.137Z,9.40
2023-05-12T03:02:51.119Z,9.02
2023-05-12T03:05:18.032Z,9.47
2023-05-12T03:07:44.857Z,9.25
2023-05-12T03:10:11.657Z,8.98
2023-05-12T03:12:38.468Z,9.20
2023-05-12T03:15:05.582Z,9.88
2023-05-12T03:17:32.445Z,9.17
2023-05-12T03:19:59.274Z,9.85
2023-05-12T03:22:26.122Z,9.45
2023-05-12T03:24:52.972Z,10.05
2023-05-12T03:27:19.880Z,9.60
2023-05-12T03:29:46.757Z,9.80
2023-05-12T03:32:13.816Z,9.88
2023-05-12T03:34:40.580Z,10.23
2023-05-12T03:37:07.442Z,10.43
2023-05-12T03:39:34.145Z,10.27
2023-05-12T03:42:00.918Z,10.40
2023-05-12T03:44:27.699Z,10.35
2023-05-12T03:46:54.567Z,10.30
2023-05-12T03:49:21.332Z,10.15
2023-05-12T03:51:48.068Z,10.15
2023-05-12T03:54:14.895Z,9.90
2023-05-12T03:56:41.666Z,10.00
2023-05-12T03:59:08.459Z,9.75
2023-05-12T04:01:35.770Z,10.18
2023-05-12T04:04:02.692Z,9.13
2023-05-12T04:06:29.503Z,9.80
2023-05-12T04:08:56.246Z,9.68
2023-05-12T04:11:23.711Z,9.43
2023-05-12T04:13:50.510Z,9.00
2023-05-12T04:16:17.447Z,8.68
2023-05-12T04:18:44.245Z,8.63
2023-05-12T04:21:10.955Z,9.00
2023-05-12T04:23:37.774Z,8.30
2023-05-12T04:26:05.407Z,8.98
2023-05-12T04:28:32.272Z,8.00
2023-05-12T04:31:07.850Z,8.13
2023-05-12T04:33:34.626Z,8.65
2023-05-12T04:36:01.624Z,8.07
2023-05-12T04:38:28.784Z,8.07
2023-05-12T04:40:59.995Z,7.95
2023-05-12T04:45:59.266Z,7.38
2023-05-12T04:48:27.095Z,7.75
2023-05-12T04:50:53.859Z,7.82
2023-05-12T04:53:20.698Z,7.47
2023-05-12T04:55:47.500Z,6.83
2023-05-12T04:58:14.281Z,7.55
2023-05-12T05:00:41.035Z,7.10
2023-05-12T05:03:07.948Z,7.13
2023-05-12T05:05:34.712Z,6.85
2023-05-12T05:08:01.696Z,6.73
2023-05-12T05:10:28.481Z,6.63
2023-05-12T05:12:55.353Z,6.30
2023-05-12T05:15:22.204Z,6.22
2023-05-12T05:17:49.844Z,6.15
2023-05-12T05:20:17.134Z,6.03
2023-05-12T05:22:43.980Z,6.10
2023-05-12T05:25:11.095Z,5.70
2023-05-12T05:27:38.915Z,6.20
2023-05-12T05:30:08.048Z,6.05
2023-05-12T05:32:40.422Z,5.50
2023-05-12T05:35:08.407Z,5.80
2023-05-12T05:37:35.274Z,5.85
2023-05-12T05:40:02.084Z,5.75
2023-05-12T05:42:28.864Z,5.78
2023-05-12T05:44:56.152Z,5.40
2023-05-12T05:47:22.942Z,5.60
2023-05-12T05:49:49.736Z,5.38
2023-05-12T05:52:16.515Z,5.43
2023-05-12T05:54:43.358Z,5.60
2023-05-12T05:57:10.058Z,5.57
2023-05-12T05:59:37.000Z,4.85
2023-05-12T06:02:03.882Z,5.50
2023-05-12T06:04:30.860Z,5.15
2023-05-12T06:06:57.736Z,4.70
2023-05-12T06:09:24.592Z,5.07
2023-05-12T06:11:51.497Z,4.75
2023-05-12T06:14:18.286Z,5.10
2023-05-12T06:16:45.122Z,5.25
2023-05-12T06:19:12.884Z,4.72
2023-05-12T06:21:39.907Z,5.63
2023-05-12T06:24:07.054Z,5.28
2023-05-12T06:26:34.300Z,5.17
2023-05-12T06:29:01.084Z,5.15
2023-05-12T06:31:28.090Z,5.60
2023-05-12T06:33:54.971Z,5.32
2023-05-12T06:36:21.759Z,5.07
2023-05-12T06:38:48.580Z,5.40
2023-05-12T06:41:15.370Z,5.20
2023-05-12T06:43:42.839Z,4.78
2023-05-12T06:46:09.848Z,5.28
2023-05-12T06:48:36.636Z,4.80
2023-05-12T06:51:04.159Z,5.25
2023-05-12T06:53:30.955Z,4.68
2023-05-12T06:55:57.762Z,5.63
2023-05-12T06:58:24.637Z,5.32
2023-05-12T07:00:52.030Z,5.53
2023-05-12T07:03:18.947Z,5.35
2023-05-12T07:05:46.465Z,5.47
2023-05-12T07:08:13.273Z,5.32
2023-05-12T07:10:40.223Z,5.45
2023-05-12T07:13:07.158Z,5.20
2023-05-12T07:15:33.939Z,5.38
2023-05-12T07:18:00.778Z,5.47
2023-05-12T07:20:28.000Z,5.30
2023-05-12T07:22:54.988Z,4.95
2023-05-12T07:25:22.126Z,5.23
2023-05-12T07:27:50.017Z,5.15
2023-05-12T07:30:17.238Z,4.20
2023-05-12T07:32:44.661Z,4.95
2023-05-12T07:35:11.477Z,4.88
2023-05-12T07:37:38.275Z,5.23
2023-05-12T07:40:05.473Z,4.75
2023-05-12T07:42:32.253Z,5.13
2023-05-12T07:44:59.144Z,4.80
2023-05-12T07:47:26.228Z,4.68
2023-05-12T07:49:52.964Z,4.90
2023-05-12T07:52:19.753Z,3.83
2023-05-12T07:54:46.641Z,4.82
2023-05-12T07:57:13.469Z,4.13
2023-05-12T07:59:40.742Z,4.35
2023-05-12T08:02:08.145Z,4.13
2023-05-12T08:04:34.936Z,4.70
2023-05-12T08:07:01.693Z,4.25
2023-05-12T08:09:28.479Z,4.40
2023-05-12T08:11:55.234Z,3.90
2023-05-12T08:14:22.826Z,3.73
2023-05-12T08:16:49.737Z,4.63
2023-05-12T08:19:16.475Z,4.10
2023-05-12T08:21:43.209Z,4.10
2023-05-12T08:24:10.040Z,3.72
2023-05-12T08:26:36.801Z,3.47
2023-05-12T08:29:04.812Z,4.00
2023-05-12T08:31:31.928Z,3.33
2023-05-12T08:34:08.963Z,3.47
2023-05-12T08:36:37.474Z,3.53
2023-05-12T08:39:04.332Z,3.67
2023-05-12T08:41:42.090Z,3.72
2023-05-12T08:44:08.869Z,3.47
2023-05-12T08:46:35.816Z,3.80
2023-05-12T08:49:03.101Z,3.20
2023-05-12T08:51:32.064Z,4.00
2023-05-12T08:53:59.042Z,3.58
2023-05-12T08:58:56.869Z,3.45
2023-05-12T09:01:23.618Z,3.15
2023-05-12T09:03:52.746Z,3.63
2023-05-12T09:06:19.565Z,3.35
2023-05-12T09:08:46.310Z,3.35
2023-05-12T09:11:13.600Z,3.20
2023-05-12T09:14:00.426Z,3.45
2023-05-12T09:16:29.279Z,3.07
2023-05-12T09:18:57.163Z,3.30
2023-05-12T09:21:24.111Z,3.22
2023-05-12T09:23:55.380Z,2.70
2023-05-12T09:26:25.196Z,3.20
2023-05-12T09:28:56.261Z,2.97
2023-05-12T09:31:24.113Z,3.53
2023-05-12T09:33:51.472Z,3.08
2023-05-12T09:36:19.318Z,3.13
2023-05-12T09:38:46.063Z,3.30
2023-05-12T09:41:12.863Z,3.20
2023-05-12T09:43:46.074Z,2.80
2023-05-12T09:46:14.687Z,3.00
2023-05-12T09:48:41.850Z,2.70
2023-05-12T09:51:11.039Z,3.30
2023-05-12T09:53:43.016Z,3.50
2023-05-12T09:56:10.931Z,3.08
2023-05-12T09:58:37.732Z,3.13
2023-05-12T10:03:34.319Z,3.40
2023-05-12T10:06:02.280Z,3.37
2023-05-12T10:08:42.362Z,2.97
2023-05-12T10:11:09.108Z,3.42
2023-05-12T10:13:36.225Z,3.05
2023-05-12T10:16:03.003Z,3.13
2023-05-12T10:18:29.842Z,3.17
2023-05-12T10:20:56.828Z,3.00
2023-05-12T10:23:23.617Z,3.00
2023-05-12T10:25:50.336Z,3.35
2023-05-12T10:28:17.505Z,3.35
2023-05-12T10:30:44.315Z,3.40
2023-05-12T10:33:11.764Z,2.75
2023-05-12T10:35:39.505Z,3.10
2023-05-12T10:38:13.243Z,3.15
2023-05-12T10:40:58.259Z,2.88
2023-05-12T10:43:26.861Z,3.03
2023-05-12T10:46:19.194Z,2.90
2023-05-12T10:49:08.449Z,2.95
2023-05-12T10:51:38.321Z,3.10
2023-05-12T10:54:06.557Z,3.42
2023-05-12T10:56:39.946Z,3.30
2023-05-12T10:59:19.278Z,2.65
2023-05-12T11:02:01.792Z,3.00
2023-05-12T11:04:43.411Z,3.30
2023-05-12T11:07:12.085Z,3.47
2023-05-12T11:09:56.508Z,3.10
2023-05-12T11:12:28.932Z,3.17
2023-05-12T11:14:55.685Z,3.13
2023-05-12T11:17:22.577Z,3.45
2023-05-12T11:19:50.470Z,3.33
2023-05-12T11:22:19.970Z,2.83
2023-05-12T11:24:47.352Z,2.88
2023-05-12T11:27:15.565Z,3.75
2023-05-12T11:29:43.528Z,3.13
2023-05-12T11:32:11.295Z,3.30
2023-05-12T11:34:38.814Z,3.10
2023-05-12T11:37:06.745Z,3.20
2023-05-12T11:39:33.582Z,2.85
2023-05-12T11:42:12.030Z,2.97
2023-05-12T11:44:47.057Z,2.65
2023-05-12T11:47:14.283Z,2.77
2023-05-12T11:49:48.810Z,2.80
2023-05-12T11:52:15.722Z,3.20
2023-05-12T11:55:00.841Z,3.15
2023-05-12T11:57:28.716Z,2.92
2023-05-12T12:00:00.749Z,3.50
2023-05-12T12:02:27.941Z,3.17
2023-05-12T12:04:55.041Z,3.10
2023-05-12T12:07:35.171Z,2.85
2023-05-12T12:10:15.294Z,3.13
2023-05-12T12:12:42.403Z,3.00
2023-05-12T12:15:12.239Z,2.80
2023-05-12T12:17:40.196Z,2.72
2023-05-12T12:20:08.305Z,2.72
2023-05-12T12:22:35.407Z,3.05
2023-05-12T12:25:02.769Z,2.70
2023-05-12T12:27:29.664Z,2.95
2023-05-12T12:29:56.474Z,2.85
2023-05-12T12:32:23.561Z,2.97
2023-05-12T12:34:50.463Z,2.60
2023-05-12T12:37:17.302Z,2.80
2023-05-12T12:39:44.181Z,3.30
2023-05-12T12:42:11.010Z,3.17
2023-05-12T12:44:37.810Z,3.28
2023-05-12T12:47:05.135Z,2.65
2023-05-12T12:49:32.057Z,3.10
2023-05-12T12:51:58.850Z,3.00
2023-05-12T12:54:27.657Z,2.50
2023-05-12T12:56:55.732Z,2.88
2023-05-12T12:59:22.845Z,3.20
2023-05-12T13:01:49.652Z,2.90
2023-05-12T13:04:19.728Z,2.67
2023-05-12T13:06:46.795Z,2.92
2023-05-12T13:09:14.125Z,3.30
2023-05-12T13:11:41.039Z,2.90
2023-05-12T13:14:08.372Z,2.77
2023-05-12T13:16:35.224Z,2.85
2023-05-12T13:19:02.119Z,2.50
2023-05-12T13:21:28.980Z,3.00
2023-05-12T13:23:56.145Z,3.20
2023-05-12T13:26:23.600Z,3.17
2023-05-12T13:28:50.374Z,3.13
2023-05-12T13:31:17.146Z,2.63
2023-05-12T13:33:43.976Z,2.42
2023-05-12T13:36:10.805Z,3.25
2023-05-12T13:38:37.644Z,2.67
2023-05-12T13:41:04.496Z,2.78
2023-05-12T13:43:31.204Z,2.90
2023-05-12T13:45:58.032Z,2.80
2023-05-12T13:48:24.876Z,3.28
2023-05-12T13:50:51.789Z,3.00
2023-05-12T13:53:18.607Z,3.00
2023-05-12T13:55:45.399Z,2.83
2023-05-12T13:58:12.229Z,2.60
2023-05-12T14:00:39.102Z,2.88
2023-05-12T14:03:05.968Z,2.60
2023-05-12T14:05:32.944Z,2.78
2023-05-12T14:07:59.860Z,3.17
2023-05-12T14:10:26.622Z,2.95
2023-05-12T14:12:53.378Z,3.97
2023-05-12T14:15:29.593Z,2.77
2023-05-12T14:18:03.232Z,4.07
2023-05-12T14:20:30.139Z,4.18
2023-05-12T14:22:56.978Z,3.40
2023-05-12T14:25:25.221Z,3.80
2023-05-12T14:27:52.085Z,3.73
2023-05-12T14:30:19.244Z,2.88
2023-05-12T14:32:46.157Z,3.80
2023-05-12T14:35:13.380Z,3.20
2023-05-12T14:37:40.284Z,3.70
2023-05-12T14:40:08.526Z,3.60
2023-05-12T14:42:35.220Z,3.55
2023-05-12T14:45:02.682Z,3.20
2023-05-12T14:47:29.782Z,2.60
2023-05-12T14:49:56.651Z,3.00
2023-05-12T14:52:23.716Z,3.30
2023-05-12T14:54:50.731Z,2.90
2023-05-12T14:57:17.540Z,3.35
2023-05-12T14:59:44.363Z,2.70
2023-05-12T15:02:11.602Z,3.88
2023-05-12T15:04:38.499Z,3.30
2023-05-12T15:07:06.172Z,2.95
2023-05-12T15:09:32.989Z,2.72
2023-05-12T15:11:59.816Z,3.17
2023-05-12T15:14:26.928Z,3.50
2023-05-12T15:16:53.990Z,3.77
2023-05-12T15:19:21.696Z,3.42
2023-05-12T15:21:49.013Z,3.33
2023-05-12T15:24:16.325Z,3.40
2023-05-12T15:26:43.066Z,3.30
2023-05-12T15:29:09.767Z,4.00
2023-05-12T15:31:36.570Z,3.60
2023-05-12T15:34:03.375Z,4.05
2023-05-12T15:36:31.024Z,3.83
2023-05-12T15:38:57.826Z,3.15
2023-05-12T15:41:24.583Z,3.30
2023-05-12T15:43:51.723Z,3.15
2023-05-12T15:46:18.488Z,3.08
2023-05-12T15:48:45.301Z,3.75
2023-05-12T15:51:12.077Z,3.50
2023-05-12T15:53:38.775Z,2.83
2023-05-12T15:56:07.716Z,3.80
2023-05-12T15:58:34.600Z,3.70
2023-05-12T16:01:01.385Z,3.78
2023-05-12T16:03:28.240Z,4.18
2023-05-12T16:05:55.382Z,3.27
2023-05-12T16:08:24.114Z,3.50
2023-05-12T16:10:51.469Z,3.75
2023-05-12T16:13:18.297Z,4.22
2023-05-12T16:15:45.105Z,3.60
2023-05-12T16:18:11.927Z,3.73
2023-05-12T16:20:39.119Z,3.70
2023-05-12T16:23:05.960Z,3.95
2023-05-12T16:25:32.724Z,3.40
2023-05-12T16:27:59.540Z,3.58
2023-05-12T16:30:26.596Z,3.57
2023-05-12T16:32:53.550Z,3.60
2023-05-12T16:35:20.931Z,3.67
2023-05-12T16:37:48.131Z,3.85
2023-05-12T16:40:18.448Z,3.00
2023-05-12T16:42:45.180Z,3.57
2023-05-12T16:45:12.180Z,3.38
2023-05-12T16:47:39.004Z,3.60
2023-05-12T16:50:06.452Z,3.30
2023-05-12T16:52:34.004Z,3.45
2023-05-12T16:55:00.821Z,4.10
2023-05-12T16:57:27.612Z,3.30
2023-05-12T16:59:54.318Z,3.90
2023-05-12T17:02:21.168Z,4.95
2023-05-12T17:04:48.064Z,5.63
2023-05-12T17:07:14.865Z,4.53
2023-05-12T17:09:41.723Z,12.82
2023-05-12T17:12:08.887Z,25.58
2023-05-12T17:14:35.734Z,45.75
2023-05-12T17:17:03.035Z,36.20
2023-05-12T17:19:29.827Z,23.67
2023-05-12T17:21:56.676Z,12.32
2023-05-12T17:24:23.414Z,16.10
2023-05-12T17:26:50.584Z,23.55
2023-05-12T17:29:17.800Z,21.85
2023-05-12T17:31:44.608Z,43.80
2023-05-12T17:34:11.508Z,34.72
2023-05-12T17:36:38.327Z,21.25
2023-05-12T17:39:05.827Z,15.43
2023-05-12T17:41:32.698Z,9.98
2023-05-12T17:43:59.492Z,7.43
2023-05-12T17:46:26.360Z,18.27
2023-05-12T17:48:53.281Z,17.80
2023-05-12T17:51:20.108Z,12.60
2023-05-12T17:53:46.978Z,10.10
2023-05-12T17:56:13.691Z,9.13
2023-05-12T17:58:40.538Z,8.65
2023-05-12T18:01:07.531Z,8.73
2023-05-12T18:03:35.420Z,8.98
2023-05-12T18:06:02.452Z,13.52
2023-05-12T18:08:29.271Z,21.13
2023-05-12T18:10:56.025Z,18.27
2023-05-12T18:13:23.367Z,14.63
2023-05-12T18:15:50.347Z,17.00
2023-05-12T18:18:17.270Z,14.38
2023-05-12T18:20:44.062Z,14.37
2023-05-12T18:23:10.935Z,13.75
2023-05-12T18:25:37.791Z,13.10
2023-05-12T18:28:06.577Z,13.38
2023-05-12T18:30:33.691Z,11.85
2023-05-12T18:33:00.697Z,12.20
2023-05-12T18:35:27.635Z,11.70
2023-05-12T18:37:54.619Z,12.18
2023-05-12T18:40:21.522Z,11.02
2023-05-12T18:42:48.473Z,10.48
2023-05-12T18:45:15.752Z,10.10
2023-05-12T18:47:42.653Z,9.80
2023-05-12T18:50:09.934Z,9.27
2023-05-12T18:52:36.916Z,9.55
2023-05-12T18:55:03.853Z,9.38
2023-05-12T18:57:30.621Z,9.30
2023-05-12T18:59:57.490Z,8.90
2023-05-12T19:02:24.297Z,8.75
2023-05-12T19:04:52.145Z,8.30
2023-05-12T19:07:19.512Z,8.18
2023-05-12T19:09:46.421Z,8.30
2023-05-12T19:12:13.209Z,7.68
2023-05-12T19:14:40.237Z,7.15
2023-05-12T19:17:07.788Z,7.90
2023-05-12T19:19:34.852Z,7.95
2023-05-12T19:22:01.817Z,7.60
2023-05-12T19:24:28.678Z,7.35
2023-05-12T19:26:55.529Z,8.05
2023-05-12T19:29:22.296Z,7.93
2023-05-12T19:31:50.642Z,7.47
2023-05-12T19:34:17.594Z,7.33
2023-05-12T19:36:44.378Z,7.25
2023-05-12T19:39:11.207Z,7.55
2023-05-12T19:41:39.406Z,7.00
2023-05-12T19:44:06.233Z,7.85
2023-05-12T19:46:33.039Z,7.23
2023-05-12T19:49:00.420Z,7.57
2023-05-12T19:51:27.266Z,6.97
2023-05-12T19:53:54.071Z,7.65
2023-05-12T19:56:20.838Z,7.53
2023-05-12T19:58:48.093Z,7.40
2023-05-12T20:01:14.941Z,7.10
2023-05-12T20:03:41.882Z,7.70
2023-05-12T20:06:08.624Z,7.53
2023-05-12T20:08:35.578Z,8.15
2023-05-12T20:11:02.370Z,7.80
2023-05-12T20:13:29.166Z,7.82
2023-05-12T20:15:56.143Z,8.65
2023-05-12T20:18:23.819Z,8.65
2023-05-12T20:20:50.841Z,8.73
2023-05-12T20:23:17.722Z,9.27
2023-05-12T20:25:44.570Z,9.25
2023-05-12T20:28:11.913Z,8.55
2023-05-12T20:30:38.778Z,9.05
2023-05-12T20:33:05.614Z,8.75
2023-05-12T20:35:32.457Z,8.83
2023-05-12T20:37:59.573Z,9.10
2023-05-12T20:40:26.420Z,8.77
2023-05-12T20:42:53.274Z,9.20
2023-05-12T20:45:20.494Z,8.90
2023-05-12T20:47:47.560Z,9.10
2023-05-12T20:50:14.390Z,9.50
2023-05-12T20:52:41.509Z,9.52
2023-05-12T20:55:09.214Z,9.73
2023-05-12T20:57:36.111Z,9.32
2023-05-12T21:00:03.936Z,9.43
2023-05-12T21:02:30.999Z,9.63
2023-05-12T21:04:57.859Z,10.40
2023-05-12T21:07:24.618Z,10.38
2023-05-12T21:09:51.407Z,9.30
2023-05-12T21:12:18.193Z,10.07
2023-05-12T21:14:45.242Z,10.68
2023-05-12T21:17:12.185Z,9.60
2023-05-12T21:19:39.462Z,10.73
2023-05-12T21:22:06.830Z,10.40
2023-05-12T21:24:33.774Z,10.80
2023-05-12T21:27:04.365Z,10.10
2023-05-12T21:29:31.456Z,10.70
2023-05-12T21:31:58.205Z,10.63
2023-05-12T21:34:26.004Z,10.25
2023-05-12T21:36:52.853Z,10.67
2023-05-12T21:39:19.607Z,11.38
2023-05-12T21:41:46.539Z,10.60
2023-05-12T21:44:13.383Z,10.68
2023-05-12T21:46:40.313Z,10.55
2023-05-12T21:49:07.197Z,10.10
2023-05-12T21:51:34.185Z,10.60
2023-05-12T21:54:00.960Z,10.25
2023-05-12T21:56:27.775Z,10.02
2023-05-12T21:58:54.483Z,9.75
2023-05-12T22:01:21.306Z,10.23
2023-05-12T22:03:48.221Z,10.38
2023-05-12T22:06:15.058Z,10.63
2023-05-12T22:08:42.460Z,9.70
2023-05-12T22:11:09.395Z,10.00
2023-05-12T22:13:36.315Z,10.30
2023-05-12T22:16:04.146Z,10.48
2023-05-12T22:18:31.850Z,10.02
2023-05-12T22:20:58.967Z,10.77
2023-05-12T22:23:25.811Z,10.45
2023-05-12T22:25:52.747Z,10.07
2023-05-12T22:28:19.595Z,10.27
2023-05-12T22:30:46.403Z,9.95
2023-05-12T22:33:13.186Z,9.73
2023-05-12T22:35:39.964Z,9.57
2023-05-12T22:38:06.744Z,10.07
2023-05-12T22:40:33.896Z,10.27
2023-05-12T22:43:00.815Z,10.20
2023-05-12T22:45:27.618Z,9.65
2023-05-12T22:47:54.741Z,9.60
2023-05-12T22:50:21.844Z,10.53
2023-05-12T22:52:48.871Z,9.65
2023-05-12T22:55:15.703Z,9.68
2023-05-12T22:57:43.858Z,9.77
2023-05-12T23:00:11.708Z,10.00
2023-05-12T23:02:38.571Z,9.13
2023-05-12T23:05:05.820Z,9.90
2023-05-12T23:07:32.584Z,9.60
2023-05-12T23:09:59.363Z,9.50
2023-05-12T23:12:26.107Z,9.63
2023-05-12T23:14:52.876Z,9.53
2023-05-12T23:17:20.957Z,9.75
2023-05-12T23:19:47.734Z,9.45
2023-05-12T23:22:14.476Z,9.77
2023-05-12T23:24:41.279Z,9.93
2023-05-12T23:27:08.081Z,9.70
2023-05-12T23:29:34.875Z,9.55
2023-05-12T23:32:02.028Z,9.60
2023-05-12T23:34:29.014Z,9.40
2023-05-12T23:36:55.918Z,9.30
2023-05-12T23:39:22.766Z,10.20
2023-05-12T23:41:49.972Z,9.75
2023-05-12T23:44:16.770Z,9.60
2023-05-12T23:46:43.613Z,9.05
2023-05-12T23:49:10.523Z,9.10
2023-05-12T23:51:37.309Z,9.23
2023-05-12T23:54:04.109Z,9.82
2023-05-12T23:56:30.853Z,9.77
2023-05-12T23:58:57.568Z,9.50
